createdAt,value
2024-02-29T00:00:52.102Z,96003.41
2024-02-29T00:03:18.578Z,96002.63
2024-02-29T00:05:45.884Z,96001.63
2024-02-29T00:08:12.622Z,95997.81
2024-02-29T00:10:39.210Z,95993.84
2024-02-29T00:13:07.272Z,96000.84
2024-02-29T00:15:34.138Z,95997.50
2024-02-29T00:18:00.973Z,95994.84
2024-02-29T00:20:27.498Z,95995.09
2024-02-29T00:22:54.015Z,95988.19
2024-02-29T00:25:20.477Z,95986.19
2024-02-29T00:27:47.146Z,95985.34
2024-02-29T00:30:14.544Z,95979.16
2024-02-29T00:32:41.240Z,95980.16
2024-02-29T00:35:10.258Z,95983.72
2024-02-29T00:37:37.049Z,95978.53
2024-02-29T00:40:04.027Z,95978.91
2024-02-29T00:42:30.831Z,95969.66
2024-02-29T00:44:57.436Z,95968.88
2024-02-29T00:47:23.923Z,95970.16
2024-02-29T00:49:50.430Z,95959.59
2024-02-29T00:52:16.920Z,95956.34
2024-02-29T00:54:43.520Z,95962.91
2024-02-29T00:57:09.993Z,95959.94
2024-02-29T00:59:37.112Z,95957.53
2024-02-29T01:02:04.695Z,95952.19
2024-02-29T01:04:31.209Z,95957.56
2024-02-29T01:06:58.384Z,95958.72
2024-02-29T01:09:28.902Z,95950.34
2024-02-29T01:11:55.833Z,95945.16
2024-02-29T01:14:22.458Z,95948.34
2024-02-29T01:16:49.780Z,95936.75
2024-02-29T01:19:16.426Z,95942.81
2024-02-29T01:21:43.111Z,95937.59
2024-02-29T01:24:09.638Z,95940.19
2024-02-29T01:26:36.152Z,95933.63
2024-02-29T01:29:02.659Z,95937.22
2024-02-29T01:31:29.800Z,95932.03
2024-02-29T01:33:56.731Z,95935.22
2024-02-29T01:36:23.255Z,95933.94
2024-02-29T01:38:49.842Z,95917.97
2024-02-29T01:41:16.643Z,95920.25
2024-02-29T01:43:53.943Z,95910.66
2024-02-29T01:46:21.458Z,95914.25
2024-02-29T01:48:51.673Z,95908.44
2024-02-29T01:51:19.988Z,95893.84
2024-02-29T01:53:46.724Z,95899.00
2024-02-29T01:56:16.564Z,95887.84
2024-02-29T01:58:43.429Z,95886.84
2024-02-29T02:01:10.365Z,95887.44
2024-02-29T02:03:38.340Z,95885.91
2024-02-29T02:06:05.358Z,95885.13
2024-02-29T02:08:37.323Z,95883.53
2024-02-29T02:11:04.036Z,95884.75
2024-02-29T02:13:30.832Z,95887.06
2024-02-29T02:15:57.267Z,95878.28
2024-02-29T02:18:23.803Z,95874.28
2024-02-29T02:20:50.992Z,95876.78
2024-02-29T02:23:17.872Z,95864.56
2024-02-29T02:25:44.526Z,95870.59
2024-02-29T02:28:13.355Z,95867.72
2024-02-29T02:30:40.498Z,95858.47
2024-02-29T02:33:07.158Z,95858.53
2024-02-29T02:35:35.114Z,95864.03
2024-02-29T02:38:05.842Z,95852.66
2024-02-29T02:40:32.745Z,95846.25
2024-02-29T02:42:59.495Z,95849.44
2024-02-29T02:45:26.174Z,95844.22
2024-02-29T02:47:53.055Z,95842.91
2024-02-29T02:50:19.910Z,95833.78
2024-02-29T02:52:46.443Z,95834.63
2024-02-29T02:55:13.383Z,95838.66
2024-02-29T02:57:39.965Z,95834.81
2024-02-29T03:00:08.016Z,95831.47
2024-02-29T03:02:34.478Z,95823.09
2024-02-29T03:05:01.069Z,95811.31
2024-02-29T03:07:27.589Z,95800.31
2024-02-29T03:09:54.345Z,95808.03
2024-02-29T03:12:20.912Z,95798.25
2024-02-29T03:14:47.611Z,95794.50
2024-02-29T03:17:14.274Z,95787.31
2024-02-29T03:19:40.959Z,95781.94
2024-02-29T03:22:07.580Z,95772.75
2024-02-29T03:24:34.283Z,95753.81
2024-02-29T03:27:00.760Z,95754.59
2024-02-29T03:29:27.448Z,95753.16
2024-02-29T03:31:54.196Z,95749.72
2024-02-29T03:34:21.034Z,95750.03
2024-02-29T03:36:47.672Z,95746.34
2024-02-29T03:39:14.182Z,95735.25
2024-02-29T03:41:40.712Z,95733.00
2024-02-29T03:44:07.356Z,95729.16
2024-02-29T03:46:33.876Z,95734.41
2024-02-29T03:49:00.647Z,95729.69
2024-02-29T03:51:27.150Z,95723.84
2024-02-29T03:53:53.831Z,95732.63
2024-02-29T03:56:21.523Z,95717.09
2024-02-29T03:58:47.944Z,95718.94
2024-02-29T04:01:14.943Z,95711.31
2024-02-29T04:03:42.289Z,95718.94
2024-02-29T04:06:08.945Z,95726.16
2024-02-29T04:08:37.460Z,95716.94
2024-02-29T04:11:04.617Z,95717.69
2024-02-29T04:13:31.688Z,95715.34
2024-02-29T04:15:58.497Z,95724.84
2024-02-29T04:18:25.159Z,95722.88
2024-02-29T04:21:12.168Z,95711.88
2024-02-29T04:23:38.812Z,95706.91
2024-02-29T04:26:37.837Z,95700.91
2024-02-29T04:29:04.359Z,95706.91
2024-02-29T04:31:30.905Z,95712.22
2024-02-29T04:33:57.453Z,95705.03
2024-02-29T04:36:23.965Z,95709.19
2024-02-29T04:38:51.193Z,95706.38
2024-02-29T04:41:18.030Z,95706.38
2024-02-29T04:43:44.478Z,95712.72
2024-02-29T04:46:11.040Z,95714.28
2024-02-29T04:48:37.716Z,95708.22
2024-02-29T04:51:06.179Z,95717.66
2024-02-29T04:53:32.820Z,95717.97
2024-02-29T04:55:59.354Z,95716.50
2024-02-29T04:58:25.781Z,95708.59
2024-02-29T05:00:53.282Z,95715.94
2024-02-29T05:03:20.153Z,95709.31
2024-02-29T05:05:46.848Z,95706.91
2024-02-29T05:08:14.076Z,95704.94
2024-02-29T05:10:40.925Z,95701.47
2024-02-29T05:13:07.697Z,95705.31
2024-02-29T05:15:34.589Z,95694.03
2024-02-29T05:18:01.666Z,95697.81
2024-02-29T05:20:29.856Z,95692.63
2024-02-29T05:22:56.372Z,95684.25
2024-02-29T05:25:23.019Z,95680.81
2024-02-29T05:27:49.567Z,95678.34
2024-02-29T05:30:16.385Z,95677.09
2024-02-29T05:32:43.257Z,95672.50
2024-02-29T05:35:09.964Z,95669.91
2024-02-29T05:37:37.426Z,95674.88
2024-02-29T05:40:06.998Z,95670.47
2024-02-29T05:42:34.115Z,95669.06
2024-02-29T05:45:01.101Z,95666.25
2024-02-29T05:47:27.874Z,95679.44
2024-02-29T05:49:54.610Z,95666.03
2024-02-29T05:52:21.098Z,95659.38
2024-02-29T05:54:47.757Z,95658.94
2024-02-29T05:57:14.259Z,95656.56
2024-02-29T05:59:40.696Z,95658.94
2024-02-29T06:02:10.813Z,95663.56
2024-02-29T06:04:37.746Z,95668.41
2024-02-29T06:07:05.442Z,95672.56
2024-02-29T06:09:31.910Z,95661.97
2024-02-29T06:11:58.372Z,95655.47
2024-02-29T06:14:25.807Z,95656.31
2024-02-29T06:16:52.424Z,95651.31
2024-02-29T06:19:19.014Z,95650.16
2024-02-29T06:21:45.723Z,95651.44
2024-02-29T06:24:12.424Z,95655.03
2024-02-29T06:26:39.253Z,95656.34
2024-02-29T06:29:05.995Z,95659.34
2024-02-29T06:31:32.554Z,95649.13
2024-02-29T06:34:01.532Z,95643.16
2024-02-29T06:36:28.296Z,95654.66
2024-02-29T06:38:55.068Z,95654.31
2024-02-29T06:41:21.662Z,95644.81
2024-02-29T06:43:48.335Z,95643.09
2024-02-29T06:46:14.891Z,95642.22
2024-02-29T06:48:41.586Z,95638.94
2024-02-29T06:51:08.053Z,95627.69
2024-02-29T06:53:34.602Z,95624.81
2024-02-29T06:56:01.227Z,95630.00
2024-02-29T06:58:27.997Z,95628.50
2024-02-29T07:00:54.948Z,95620.78
2024-02-29T07:03:23.597Z,95625.09
2024-02-29T07:05:51.092Z,95620.56
2024-02-29T07:08:17.575Z,95625.09
2024-02-29T07:10:44.143Z,95624.66
2024-02-29T07:13:11.295Z,95627.69
2024-02-29T07:15:38.202Z,95613.00
2024-02-29T07:18:04.993Z,95615.31
2024-02-29T07:20:31.707Z,95609.69
2024-02-29T07:23:00.380Z,95607.22
2024-02-29T07:25:28.822Z,95591.25
2024-02-29T07:27:56.323Z,95596.00
2024-02-29T07:30:23.000Z,95595.13
2024-02-29T07:32:49.760Z,95591.94
2024-02-29T07:35:18.796Z,95591.94
2024-02-29T07:37:45.860Z,95595.69
2024-02-29T07:40:12.708Z,95596.63
2024-02-29T07:42:42.944Z,95591.22
2024-02-29T07:45:10.170Z,95598.03
2024-02-29T07:47:37.334Z,95593.50
2024-02-29T07:50:07.227Z,95591.03
2024-02-29T07:52:33.952Z,95595.66
2024-02-29T07:55:00.882Z,95591.34
2024-02-29T07:57:27.557Z,95583.34
2024-02-29T07:59:53.996Z,95579.63
2024-02-29T08:02:23.102Z,95575.63
2024-02-29T08:04:51.308Z,95563.28
2024-02-29T08:07:17.914Z,95571.56
2024-02-29T08:09:44.466Z,95573.16
2024-02-29T08:12:10.947Z,95567.22
2024-02-29T08:14:37.432Z,95564.78
2024-02-29T08:17:04.017Z,95555.66
2024-02-29T08:19:30.507Z,95556.06
2024-02-29T08:21:57.784Z,95557.75
2024-02-29T08:24:24.211Z,95567.69
2024-02-29T08:26:51.057Z,95563.66
2024-02-29T08:29:17.926Z,95550.00
2024-02-29T08:31:45.322Z,95556.44
2024-02-29T08:34:12.001Z,95545.28
2024-02-29T08:36:38.720Z,95532.88
2024-02-29T08:39:05.335Z,95523.06
2024-02-29T08:41:31.805Z,95521.47
2024-02-29T08:43:58.298Z,95535.84
2024-02-29T08:46:24.849Z,95527.44
2024-02-29T08:48:51.458Z,95522.38
2024-02-29T08:51:17.956Z,95524.50
2024-02-29T08:53:44.411Z,95512.66
2024-02-29T08:56:10.930Z,95513.81
2024-02-29T08:58:37.684Z,95514.97
2024-02-29T09:01:05.253Z,95520.25
2024-02-29T09:03:31.868Z,95508.31
2024-02-29T09:05:58.294Z,95512.59
2024-02-29T09:08:25.014Z,95520.75
2024-02-29T09:10:51.825Z,95514.97
2024-02-29T09:13:29.812Z,95514.66
2024-02-29T09:16:01.711Z,95512.84
2024-02-29T09:18:30.172Z,95507.19
2024-02-29T09:20:56.602Z,95508.66
2024-02-29T09:23:23.041Z,95503.13
2024-02-29T09:25:50.949Z,95507.06
2024-02-29T09:28:17.399Z,95502.56
2024-02-29T09:30:44.334Z,95493.84
2024-02-29T09:33:10.961Z,95506.63
2024-02-29T09:35:37.649Z,95497.94
2024-02-29T09:38:05.809Z,95494.88
2024-02-29T09:40:41.891Z,95492.72
2024-02-29T09:43:15.722Z,95479.63
2024-02-29T09:45:43.642Z,95478.78
2024-02-29T09:48:12.189Z,95476.75
2024-02-29T09:50:39.016Z,95493.13
2024-02-29T09:53:06.780Z,95482.81
2024-02-29T09:55:35.217Z,95480.97
2024-02-29T09:58:03.699Z,95480.03
2024-02-29T10:00:31.722Z,95470.75
2024-02-29T10:02:58.805Z,95465.97
2024-02-29T10:05:26.047Z,95469.09
2024-02-29T10:07:53.549Z,95466.38
2024-02-29T10:10:20.076Z,95461.03
2024-02-29T10:12:54.751Z,95459.94
2024-02-29T10:15:26.258Z,95461.88
2024-02-29T10:17:54.404Z,95451.28
2024-02-29T10:20:24.067Z,95459.94
2024-02-29T10:22:50.936Z,95459.94
2024-02-29T10:25:17.729Z,95458.63
2024-02-29T10:27:44.663Z,95461.00
2024-02-29T10:30:16.657Z,95447.66
2024-02-29T10:32:45.501Z,95447.97
2024-02-29T10:35:39.842Z,95445.13
2024-02-29T10:38:09.929Z,95446.72
2024-02-29T10:40:36.571Z,95442.28
2024-02-29T10:43:04.047Z,95434.94
2024-02-29T10:45:35.635Z,95426.97
2024-02-29T10:48:16.014Z,95431.38
2024-02-29T10:50:54.394Z,95425.97
2024-02-29T10:53:42.182Z,95425.38
2024-02-29T10:56:20.792Z,95412.84
2024-02-29T10:58:50.732Z,95406.31
2024-02-29T11:01:18.056Z,95405.50
2024-02-29T11:03:45.513Z,95399.41
2024-02-29T11:06:13.970Z,95403.78
2024-02-29T11:08:41.639Z,95397.38
2024-02-29T11:11:14.121Z,95390.28
2024-02-29T11:13:41.053Z,95394.47
2024-02-29T11:16:12.281Z,95398.66
2024-02-29T11:18:39.302Z,95387.56
2024-02-29T11:21:06.685Z,95386.28
2024-02-29T11:23:40.628Z,95380.34
2024-02-29T11:26:14.500Z,95374.41
2024-02-29T11:28:42.402Z,95361.84
2024-02-29T11:31:12.785Z,95368.16
2024-02-29T11:33:39.529Z,95358.00
2024-02-29T11:36:06.406Z,95351.06
2024-02-29T11:38:40.150Z,95347.50
2024-02-29T11:41:20.469Z,95350.84
2024-02-29T11:43:47.946Z,95353.91
2024-02-29T11:46:15.227Z,95352.72
2024-02-29T11:48:42.273Z,95345.47
2024-02-29T11:51:10.474Z,95336.63
2024-02-29T11:53:39.768Z,95345.47
2024-02-29T11:56:14.613Z,95336.72
2024-02-29T11:58:43.639Z,95328.78
2024-02-29T12:01:13.716Z,95322.66
2024-02-29T12:03:40.394Z,95316.44
2024-02-29T12:06:07.306Z,95324.56
2024-02-29T12:08:33.852Z,95307.09
2024-02-29T12:11:01.452Z,95307.31
2024-02-29T12:13:29.167Z,95307.03
2024-02-29T12:15:56.615Z,95298.22
2024-02-29T12:18:24.043Z,95297.66
2024-02-29T12:20:51.360Z,95294.56
2024-02-29T12:23:20.176Z,95294.56
2024-02-29T12:25:47.387Z,95292.44
2024-02-29T12:28:14.756Z,95293.59
2024-02-29T12:30:41.817Z,95280.63
2024-02-29T12:33:09.315Z,95282.72
2024-02-29T12:35:35.855Z,95283.50
2024-02-29T12:38:05.449Z,95271.72
2024-02-29T12:40:34.169Z,95257.06
2024-02-29T12:43:01.283Z,95255.19
2024-02-29T12:45:28.198Z,95249.19
2024-02-29T12:47:55.717Z,95238.16
2024-02-29T12:50:23.005Z,95230.56
2024-02-29T12:52:55.082Z,95229.28
2024-02-29T12:55:24.709Z,95223.00
2024-02-29T12:57:51.489Z,95220.44
2024-02-29T13:00:28.345Z,95221.69
2024-02-29T13:02:55.063Z,95212.63
2024-02-29T13:05:22.572Z,95200.94
2024-02-29T13:07:49.797Z,95200.19
2024-02-29T13:10:16.495Z,95194.91
2024-02-29T13:12:44.458Z,95188.16
2024-02-29T13:15:14.082Z,95180.81
2024-02-29T13:17:41.066Z,95179.22
2024-02-29T13:20:08.150Z,95176.13
2024-02-29T13:22:35.784Z,95165.16
2024-02-29T13:25:04.111Z,95167.25
2024-02-29T13:27:31.045Z,95165.19
2024-02-29T13:29:57.677Z,95159.97
2024-02-29T13:32:24.647Z,95156.31
2024-02-29T13:34:51.863Z,95156.34
2024-02-29T13:37:20.533Z,95155.28
2024-02-29T13:39:47.466Z,95142.19
2024-02-29T13:42:14.005Z,95132.25
2024-02-29T13:44:40.756Z,95127.03
2024-02-29T13:47:07.212Z,95124.94
2024-02-29T13:49:34.701Z,95119.69
2024-02-29T13:52:01.236Z,95118.41
2024-02-29T13:54:27.792Z,95111.84
2024-02-29T13:56:54.413Z,95112.91
2024-02-29T13:59:21.066Z,95110.81
2024-02-29T14:01:48.485Z,95107.16
2024-02-29T14:04:16.829Z,95094.88
2024-02-29T14:06:44.543Z,95105.56
2024-02-29T14:09:12.389Z,95100.88
2024-02-29T14:11:39.996Z,95106.88
2024-02-29T14:14:07.199Z,95088.84
2024-02-29T14:16:34.157Z,95089.59
2024-02-29T14:19:00.769Z,95087.22
2024-02-29T14:21:27.354Z,95082.50
2024-02-29T14:23:53.869Z,95071.25
2024-02-29T14:26:20.786Z,95074.16
2024-02-29T14:28:47.338Z,95074.19
2024-02-29T14:31:14.756Z,95066.34
2024-02-29T14:33:42.196Z,95068.97
2024-02-29T14:36:11.321Z,95060.59
2024-02-29T14:38:38.542Z,95050.63
2024-02-29T14:41:05.251Z,95049.06
2024-02-29T14:43:31.784Z,95040.88
2024-02-29T14:45:58.311Z,95035.09
2024-02-29T14:48:25.690Z,95037.38
2024-02-29T14:50:52.410Z,95032.13
2024-02-29T14:53:19.044Z,95023.22
2024-02-29T14:55:45.501Z,95024.78
2024-02-29T14:58:12.042Z,95019.03
2024-02-29T15:00:38.537Z,95010.69
2024-02-29T15:03:05.424Z,95015.16
2024-02-29T15:05:31.849Z,95010.69
2024-02-29T15:07:59.061Z,94998.13
2024-02-29T15:10:25.606Z,95009.66
2024-02-29T15:12:52.302Z,95001.50
2024-02-29T15:15:18.909Z,94997.53
2024-02-29T15:17:45.841Z,94991.78
2024-02-29T15:20:12.500Z,95000.16
2024-02-29T15:22:39.014Z,94985.50
2024-02-29T15:25:15.372Z,94988.16
2024-02-29T15:27:47.394Z,94977.66
2024-02-29T15:30:14.342Z,94973.47
2024-02-29T15:32:41.008Z,94971.91
2024-02-29T15:35:08.997Z,94966.16
2024-02-29T15:37:35.877Z,94969.28
2024-02-29T15:40:03.380Z,94963.53
2024-02-29T15:42:29.818Z,94962.25
2024-02-29T15:44:56.670Z,94960.97
2024-02-29T15:47:23.152Z,94956.81
2024-02-29T15:49:49.609Z,94950.59
2024-02-29T15:52:17.960Z,94952.66
2024-02-29T15:54:44.646Z,94947.97
2024-02-29T15:57:12.568Z,94943.28
2024-02-29T15:59:40.271Z,94936.50
2024-02-29T16:02:07.779Z,94933.34
2024-02-29T16:04:35.942Z,94943.31
2024-02-29T16:07:02.449Z,94946.00
2024-02-29T16:09:30.778Z,94940.75
2024-02-29T16:11:57.276Z,94937.44
2024-02-29T16:14:24.032Z,94926.13
2024-02-29T16:16:50.584Z,94934.47
2024-02-29T16:19:17.195Z,94933.94
2024-02-29T16:21:43.768Z,94928.69
2024-02-29T16:24:10.529Z,94931.84
2024-02-29T16:26:37.429Z,94920.91
2024-02-29T16:29:04.146Z,94924.09
2024-02-29T16:31:31.054Z,94929.84
2024-02-29T16:33:57.864Z,94913.63
2024-02-29T16:36:24.452Z,94917.28
2024-02-29T16:38:50.976Z,94914.16
2024-02-29T16:41:17.922Z,94916.28
2024-02-29T16:43:44.715Z,94921.50
2024-02-29T16:46:12.138Z,94913.13
2024-02-29T16:48:38.713Z,94901.13
2024-02-29T16:51:05.459Z,94899.09
2024-02-29T16:53:32.499Z,94904.06
2024-02-29T16:55:59.875Z,94893.34
2024-02-29T16:58:26.941Z,94893.06
2024-02-29T17:00:55.494Z,94890.44
2024-02-29T17:03:22.056Z,94886.78
2024-02-29T17:05:48.755Z,94889.13
2024-02-29T17:08:15.244Z,94891.75
2024-02-29T17:10:42.026Z,94888.34
2024-02-29T17:13:08.632Z,94885.53
2024-02-29T17:15:38.316Z,94881.38
2024-02-29T17:18:05.241Z,94879.78
2024-02-29T17:20:31.904Z,94882.91
2024-02-29T17:22:58.545Z,94866.66
2024-02-29T17:25:25.096Z,94876.59
2024-02-29T17:27:53.956Z,94875.28
2024-02-29T17:30:21.916Z,94882.63
2024-02-29T17:32:48.563Z,94874.50
2024-02-29T17:35:17.095Z,94880.03
2024-02-29T17:37:44.811Z,94863.56
2024-02-29T17:40:11.812Z,94862.53
2024-02-29T17:42:38.422Z,94859.13
2024-02-29T17:45:05.874Z,94856.75
2024-02-29T17:47:32.392Z,94859.88
2024-02-29T17:49:58.935Z,94854.63
2024-02-29T17:52:26.446Z,94851.50
2024-02-29T17:54:55.531Z,94849.44
2024-02-29T17:57:22.451Z,94848.91
2024-02-29T17:59:49.156Z,94835.34
2024-02-29T18:02:15.698Z,94839.53
2024-02-29T18:04:42.390Z,94845.81
2024-02-29T18:07:09.022Z,94842.41
2024-02-29T18:09:35.984Z,94839.28
2024-02-29T18:12:02.557Z,94837.16
2024-02-29T18:14:30.058Z,94840.31
2024-02-29T18:16:57.507Z,94836.94
2024-02-29T18:19:24.173Z,94830.91
2024-02-29T18:21:50.773Z,94834.81
2024-02-29T18:24:17.380Z,94840.03
2024-02-29T18:26:44.890Z,94826.44
2024-02-29T18:29:11.431Z,94837.41
2024-02-29T18:31:37.955Z,94826.97
2024-02-29T18:34:04.514Z,94838.47
2024-02-29T18:36:31.027Z,94831.69
2024-02-29T18:38:57.721Z,94833.25
2024-02-29T18:41:26.030Z,94829.31
2024-02-29T18:43:52.989Z,94834.03
2024-02-29T18:46:19.687Z,94822.28
2024-02-29T18:48:46.394Z,94826.50
2024-02-29T18:51:13.185Z,94828.09
2024-02-29T18:53:39.707Z,94817.09
2024-02-29T18:56:06.341Z,94820.25
2024-02-29T18:58:32.865Z,94823.38
2024-02-29T19:00:59.584Z,94818.66
2024-02-29T19:03:26.126Z,94811.88
2024-02-29T19:05:53.098Z,94815.53
2024-02-29T19:08:21.430Z,94813.97
2024-02-29T19:10:48.053Z,94818.41
2024-02-29T19:13:14.850Z,94800.38
2024-02-29T19:15:41.489Z,94810.06
2024-02-29T19:18:07.936Z,94800.63
2024-02-29T19:20:34.553Z,94811.09
2024-02-29T19:23:01.097Z,94805.88
2024-02-29T19:25:27.917Z,94803.78
2024-02-29T19:27:54.487Z,94804.06
2024-02-29T19:30:23.390Z,94801.94
2024-02-29T19:32:50.299Z,94808.19
2024-02-29T19:35:17.252Z,94802.72
2024-02-29T19:37:44.060Z,94803.28
2024-02-29T19:40:10.817Z,94805.09
2024-02-29T19:42:40.299Z,94794.13
2024-02-29T19:45:09.127Z,94792.78
2024-02-29T19:47:37.558Z,94787.81
2024-02-29T19:50:04.442Z,94789.88
2024-02-29T19:52:33.468Z,94781.53
2024-02-29T19:55:02.304Z,94782.34
2024-02-29T19:57:29.107Z,94786.78
2024-02-29T19:59:55.546Z,94782.06
2024-02-29T20:02:22.067Z,94781.81
2024-02-29T20:04:49.513Z,94783.34
2024-02-29T20:07:16.525Z,94781.50
2024-02-29T20:09:46.726Z,94768.97
2024-02-29T20:12:13.279Z,94777.31
2024-02-29T20:14:41.568Z,94770.81
2024-02-29T20:17:08.724Z,94773.66
2024-02-29T20:19:37.419Z,94772.63
2024-02-29T20:22:04.969Z,94774.41
2024-02-29T20:24:31.736Z,94765.78
2024-02-29T20:26:58.243Z,94772.03
2024-02-29T20:29:25.066Z,94766.31
2024-02-29T20:31:53.353Z,94766.84
2024-02-29T20:34:19.888Z,94767.41
2024-02-29T20:36:47.567Z,94773.41
2024-02-29T20:39:15.408Z,94766.06
2024-02-29T20:41:42.207Z,94758.97
2024-02-29T20:44:09.368Z,94760.06
2024-02-29T20:46:36.123Z,94756.97
2024-02-29T20:49:02.652Z,94753.88
2024-02-29T20:51:29.138Z,94745.50
2024-02-29T20:53:55.656Z,94746.28
2024-02-29T20:56:22.706Z,94750.19
2024-02-29T20:58:49.246Z,94745.00
2024-02-29T21:01:16.147Z,94740.31
2024-02-29T21:03:42.719Z,94732.53
2024-02-29T21:06:09.220Z,94731.50
2024-02-29T21:08:38.507Z,94723.66
2024-02-29T21:11:05.056Z,94712.19
2024-02-29T21:13:34.763Z,94717.94
2024-02-29T21:16:01.507Z,94714.53
2024-02-29T21:18:28.085Z,94709.78
2024-02-29T21:20:54.527Z,94709.28
2024-02-29T21:23:20.995Z,94706.94
2024-02-29T21:25:47.566Z,94713.25
2024-02-29T21:28:14.656Z,94702.84
2024-02-29T21:30:41.652Z,94704.97
2024-02-29T21:33:08.242Z,94701.31
2024-02-29T21:35:34.775Z,94701.84
2024-02-29T21:38:01.260Z,94700.81
2024-02-29T21:40:28.378Z,94702.63
2024-02-29T21:42:55.037Z,94702.06
2024-02-29T21:45:21.713Z,94699.75
2024-02-29T21:47:48.360Z,94700.81
2024-02-29T21:50:14.808Z,94705.50
2024-02-29T21:52:41.573Z,94704.47
2024-02-29T21:55:08.784Z,94702.84
2024-02-29T21:57:35.376Z,94697.09
2024-02-29T22:00:02.139Z,94693.69
2024-02-29T22:02:28.613Z,94691.84
2024-02-29T22:04:55.572Z,94700.72
2024-02-29T22:07:22.376Z,94693.41
2024-02-29T22:09:49.891Z,94693.41
2024-02-29T22:12:16.336Z,94689.53
2024-02-29T22:14:42.752Z,94685.06
2024-02-29T22:17:09.465Z,94685.06
2024-02-29T22:19:38.238Z,94678.56
2024-02-29T22:22:04.856Z,94668.13
2024-02-29T22:24:31.343Z,94679.34
2024-02-29T22:26:58.697Z,94675.69
2024-02-29T22:29:25.160Z,94678.28
2024-02-29T22:31:51.586Z,94686.91
2024-02-29T22:34:18.152Z,94682.50
2024-02-29T22:36:44.760Z,94673.66
2024-02-29T22:39:11.994Z,94675.75
2024-02-29T22:41:52.441Z,94678.41
2024-02-29T22:44:23.840Z,94687.50
2024-02-29T22:46:50.394Z,94687.25
2024-02-29T22:49:16.848Z,94684.16
2024-02-29T22:51:43.440Z,94676.06
2024-02-29T22:54:09.870Z,94686.78
2024-02-29T22:56:36.723Z,94678.47
2024-02-29T22:59:03.195Z,94676.34
2024-02-29T23:01:29.873Z,94668.28
2024-02-29T23:03:56.801Z,94672.72
2024-02-29T23:06:23.679Z,94677.91
2024-02-29T23:08:50.106Z,94669.59
2024-02-29T23:11:17.319Z,94668.53
2024-02-29T23:13:43.967Z,94665.94
2024-02-29T23:16:10.489Z,94659.69
2024-02-29T23:18:36.936Z,94659.69
2024-02-29T23:21:22.877Z,94666.47
2024-02-29T23:23:49.400Z,94665.41
2024-02-29T23:26:15.816Z,94658.63
2024-02-29T23:28:42.212Z,94659.16
2024-02-29T23:31:08.781Z,94660.75
2024-02-29T23:33:35.786Z,94654.47
2024-02-29T23:36:02.333Z,94652.38
2024-02-29T23:38:28.748Z,94647.97
2024-02-29T23:40:55.189Z,94643.78
2024-02-29T23:43:21.798Z,94641.94
2024-02-29T23:45:48.237Z,94639.28
2024-02-29T23:48:14.830Z,94625.19
2024-02-29T23:50:41.316Z,94624.63
2024-02-29T23:53:07.745Z,94632.75
2024-02-29T23:55:34.490Z,94629.84
2024-02-29T23:58:01.049Z,94622.59
